createdAt,value
2023-04-05T00:01:12.471Z,7.77
2023-04-05T00:03:43.479Z,7.27
2023-04-05T00:06:16.795Z,6.60
2023-04-05T00:08:50.137Z,6.93
2023-04-05T00:11:26.057Z,7.87
2023-04-05T00:13:57.815Z,7.40
2023-04-05T00:16:29.711Z,6.53
2023-04-05T00:19:02.218Z,5.80
2023-04-05T00:21:36.666Z,6.30
2023-04-05T00:24:07.756Z,7.57
2023-04-05T00:26:38.096Z,6.23
2023-04-05T00:29:08.347Z,6.07
2023-04-05T00:31:38.573Z,5.30
2023-04-05T00:34:09.407Z,6.13
2023-04-05T00:36:42.151Z,7.00
2023-04-05T00:39:12.408Z,7.00
2023-04-05T00:41:45.282Z,6.70
2023-04-05T00:44:16.683Z,6.83
2023-04-05T00:46:46.919Z,6.00
2023-04-05T00:49:19.846Z,7.80
2023-04-05T00:51:53.895Z,6.30
2023-04-05T00:54:24.146Z,5.50
2023-04-05T00:56:57.570Z,5.83
2023-04-05T00:59:36.621Z,6.00
2023-04-05T01:02:17.017Z,6.27
2023-04-05T01:04:56.718Z,5.63
2023-04-05T01:07:46.252Z,7.33
2023-04-05T01:10:20.958Z,6.80
2023-04-05T01:12:54.518Z,7.47
2023-04-05T01:15:24.793Z,6.77
2023-04-05T01:17:57.879Z,7.80
2023-04-05T01:20:28.875Z,6.77
2023-04-05T01:23:39.127Z,7.83
2023-04-05T01:26:48.505Z,9.80
2023-04-05T01:29:47.794Z,8.07
2023-04-05T01:32:33.343Z,7.70
2023-04-05T01:35:15.505Z,6.60
2023-04-05T01:37:51.080Z,6.73
2023-04-05T01:40:24.134Z,7.40
2023-04-05T01:42:54.289Z,6.67
2023-04-05T01:45:27.112Z,6.33
2023-04-05T01:47:57.394Z,7.37
2023-04-05T01:50:27.672Z,7.53
2023-04-05T01:52:57.840Z,6.60
2023-04-05T01:55:30.163Z,6.80
2023-04-05T01:58:01.628Z,6.00
2023-04-05T02:00:34.599Z,6.03
2023-04-05T02:03:04.890Z,6.20
2023-04-05T02:05:35.557Z,6.50
2023-04-05T02:08:05.907Z,6.03
2023-04-05T02:10:36.156Z,6.70
2023-04-05T02:13:06.320Z,6.03
2023-04-05T02:15:41.412Z,5.97
2023-04-05T02:18:22.001Z,5.70
2023-04-05T02:20:53.138Z,6.40
2023-04-05T02:23:26.094Z,5.30
2023-04-05T02:25:56.398Z,5.63
2023-04-05T02:28:26.807Z,4.50
2023-04-05T02:31:02.220Z,5.13
2023-04-05T02:33:32.572Z,4.47
2023-04-05T02:36:02.912Z,5.53
2023-04-05T02:38:34.426Z,5.30
2023-04-05T02:41:05.462Z,4.57
2023-04-05T02:43:35.620Z,5.63
2023-04-05T02:46:08.662Z,4.97
2023-04-05T02:48:38.957Z,4.83
2023-04-05T02:51:09.272Z,5.83
2023-04-05T02:53:39.560Z,5.83
2023-04-05T02:56:13.870Z,5.00
2023-04-05T02:58:45.630Z,5.07
2023-04-05T03:01:18.800Z,5.10
2023-04-05T03:03:49.167Z,5.17
2023-04-05T03:06:20.954Z,6.33
2023-04-05T03:08:51.422Z,6.17
2023-04-05T03:11:21.923Z,6.53
2023-04-05T03:13:52.097Z,6.73
2023-04-05T03:16:24.971Z,6.93
2023-04-05T03:18:55.203Z,6.70
2023-04-05T03:21:28.590Z,5.87
2023-04-05T03:23:58.858Z,5.87
2023-04-05T03:26:29.231Z,4.80
2023-04-05T03:28:59.642Z,4.97
2023-04-05T03:31:34.923Z,5.37
2023-04-05T03:34:05.144Z,5.00
2023-04-05T03:36:42.955Z,5.67
2023-04-05T03:39:14.293Z,6.10
2023-04-05T03:41:44.637Z,6.30
2023-04-05T03:44:14.865Z,6.57
2023-04-05T03:46:47.691Z,6.27
2023-04-05T03:49:20.037Z,6.70
2023-04-05T03:51:50.484Z,6.80
2023-04-05T03:54:22.152Z,6.53
2023-04-05T03:56:52.368Z,5.40
2023-04-05T03:59:28.339Z,7.07
2023-04-05T04:02:03.186Z,6.10
2023-04-05T04:04:35.765Z,5.80
2023-04-05T04:07:06.010Z,6.83
2023-04-05T04:09:36.778Z,5.70
2023-04-05T04:12:07.310Z,5.23
2023-04-05T04:14:38.646Z,5.33
2023-04-05T04:17:11.387Z,4.87
2023-04-05T04:19:41.658Z,12.50
2023-04-05T04:22:20.702Z,4.63
2023-04-05T04:24:51.046Z,5.00
2023-04-05T04:27:21.429Z,4.83
2023-04-05T04:29:56.827Z,5.13
2023-04-05T04:32:52.052Z,5.50
2023-04-05T04:35:25.224Z,5.87
2023-04-05T04:38:00.621Z,6.13
2023-04-05T04:40:38.942Z,6.70
2023-04-05T04:43:10.356Z,6.53
2023-04-05T04:45:40.951Z,5.10
2023-04-05T04:48:18.076Z,5.60
2023-04-05T04:50:50.421Z,6.30
2023-04-05T04:53:24.312Z,5.77
2023-04-05T04:55:55.607Z,5.37
2023-04-05T04:58:26.328Z,5.07
2023-04-05T05:00:59.001Z,4.60
2023-04-05T05:03:31.899Z,4.83
2023-04-05T05:06:02.803Z,4.67
2023-04-05T05:08:32.986Z,5.23
2023-04-05T05:11:03.502Z,5.53
2023-04-05T05:13:42.886Z,4.77
2023-04-05T05:16:13.309Z,5.63
2023-04-05T05:18:48.234Z,5.37
2023-04-05T05:21:18.583Z,4.83
2023-04-05T05:23:49.032Z,5.33
2023-04-05T05:26:19.609Z,5.03
2023-04-05T05:28:50.126Z,5.50
2023-04-05T05:31:20.589Z,6.13
2023-04-05T05:33:55.573Z,5.70
2023-04-05T05:36:25.920Z,4.73
2023-04-05T05:38:57.585Z,5.10
2023-04-05T05:41:27.996Z,6.23
2023-04-05T05:43:58.166Z,11.77
2023-04-05T05:46:31.446Z,12.97
2023-04-05T05:49:04.521Z,12.00
2023-04-05T05:51:36.094Z,12.57
2023-04-05T05:54:07.720Z,9.73
2023-04-05T05:56:39.862Z,7.60
2023-04-05T05:59:10.186Z,8.67
2023-04-05T06:01:47.048Z,10.07
2023-04-05T06:04:20.052Z,7.70
2023-04-05T06:06:50.485Z,10.13
2023-04-05T06:09:22.452Z,6.20
2023-04-05T06:11:57.347Z,6.23
2023-04-05T06:14:29.819Z,7.17
2023-04-05T06:17:00.319Z,8.30
2023-04-05T06:19:35.348Z,7.57
2023-04-05T06:22:05.559Z,5.67
2023-04-05T06:24:35.971Z,5.60
2023-04-05T06:27:06.264Z,4.63
2023-04-05T06:29:36.459Z,5.10
2023-04-05T06:32:07.109Z,5.93
2023-04-05T06:34:39.932Z,4.77
2023-04-05T06:37:10.160Z,5.30
2023-04-05T06:39:42.904Z,5.60
2023-04-05T06:42:13.215Z,5.20
2023-04-05T06:44:43.397Z,4.60
2023-04-05T06:47:14.912Z,4.80
2023-04-05T06:49:47.686Z,5.07
2023-04-05T06:52:21.105Z,5.00
2023-04-05T06:54:51.317Z,5.07
2023-04-05T06:57:21.696Z,5.60
2023-04-05T06:59:51.902Z,4.63
2023-04-05T07:02:22.314Z,4.20
2023-04-05T07:05:00.688Z,5.40
2023-04-05T07:07:30.970Z,4.60
2023-04-05T07:10:01.142Z,4.17
2023-04-05T07:12:31.704Z,4.63
2023-04-05T07:15:03.262Z,4.57
2023-04-05T07:17:33.478Z,4.77
2023-04-05T07:20:09.771Z,5.10
2023-04-05T07:22:40.005Z,4.60
2023-04-05T07:25:11.909Z,4.83
2023-04-05T07:27:44.852Z,4.15
2023-04-05T07:30:16.924Z,4.45
2023-04-05T07:32:47.363Z,5.60
2023-04-05T07:35:20.387Z,5.57
2023-04-05T07:37:50.617Z,5.65
2023-04-05T07:40:21.089Z,6.07
2023-04-05T07:42:52.569Z,5.90
2023-04-05T07:45:25.165Z,6.45
2023-04-05T07:47:58.321Z,6.07
2023-04-05T07:50:32.136Z,6.13
2023-04-05T07:53:02.373Z,6.10
2023-04-05T07:55:34.691Z,6.20
2023-04-05T07:58:04.875Z,6.20
2023-04-05T08:00:35.095Z,5.88
2023-04-05T08:03:05.402Z,6.30
2023-04-05T08:05:40.486Z,6.07
2023-04-05T08:08:11.454Z,6.40
2023-04-05T08:10:42.917Z,6.00
2023-04-05T08:13:13.415Z,6.20
2023-04-05T08:15:43.710Z,7.28
2023-04-05T08:18:13.898Z,6.90
2023-04-05T08:20:46.701Z,6.55
2023-04-05T08:23:16.959Z,6.75
2023-04-05T08:25:48.242Z,7.15
2023-04-05T08:28:18.702Z,5.93
2023-04-05T08:30:49.475Z,6.45
2023-04-05T08:33:19.667Z,5.82
2023-04-05T08:35:52.611Z,6.15
2023-04-05T08:38:23.063Z,6.70
2023-04-05T08:40:53.316Z,5.78
2023-04-05T08:43:39.381Z,5.57
2023-04-05T08:46:12.993Z,5.28
2023-04-05T08:48:43.246Z,4.95
2023-04-05T08:51:16.276Z,5.20
2023-04-05T08:53:46.598Z,5.20
2023-04-05T08:56:22.346Z,4.57
2023-04-05T08:59:04.188Z,5.53
2023-04-05T09:01:39.904Z,5.60
2023-04-05T09:04:17.441Z,5.22
2023-04-05T09:06:53.439Z,6.25
2023-04-05T09:09:25.611Z,5.35
2023-04-05T09:11:57.251Z,5.50
2023-04-05T09:14:28.629Z,5.80
2023-04-05T09:16:59.473Z,5.47
2023-04-05T09:19:29.733Z,5.50
2023-04-05T09:22:08.878Z,5.65
2023-04-05T09:24:44.842Z,5.32
2023-04-05T09:27:18.000Z,6.47
2023-04-05T09:29:57.039Z,5.18
2023-04-05T09:32:30.593Z,5.55
2023-04-05T09:35:04.747Z,5.20
2023-04-05T09:37:37.607Z,5.00
2023-04-05T09:40:11.429Z,5.43
2023-04-05T09:42:48.681Z,6.20
2023-04-05T09:45:22.486Z,5.55
2023-04-05T09:48:09.588Z,5.88
2023-04-05T09:50:40.434Z,5.93
2023-04-05T09:53:19.419Z,5.80
2023-04-05T09:55:51.806Z,5.53
2023-04-05T09:58:25.562Z,5.13
2023-04-05T10:01:09.687Z,5.03
2023-04-05T10:03:51.132Z,4.90
2023-04-05T10:06:21.792Z,5.28
2023-04-05T10:08:55.509Z,4.63
2023-04-05T10:11:32.446Z,4.90
2023-04-05T10:14:06.598Z,4.63
2023-04-05T10:16:41.195Z,5.00
2023-04-05T10:19:24.574Z,5.68
2023-04-05T10:21:57.686Z,5.20
2023-04-05T10:24:42.989Z,5.05
2023-04-05T10:27:24.655Z,4.28
2023-04-05T10:30:10.122Z,5.18
2023-04-05T10:33:10.218Z,5.10
2023-04-05T10:35:55.605Z,5.28
2023-04-05T10:38:30.085Z,5.47
2023-04-05T10:41:15.430Z,5.55
2023-04-05T10:43:47.054Z,5.85
2023-04-05T10:46:24.178Z,6.05
2023-04-05T10:49:06.737Z,4.82
2023-04-05T10:51:39.797Z,5.18
2023-04-05T10:54:14.251Z,5.32
2023-04-05T10:56:48.306Z,5.15
2023-04-05T10:59:19.785Z,5.22
2023-04-05T11:01:51.563Z,5.05
2023-04-05T11:04:24.217Z,9.02
2023-04-05T11:07:18.337Z,6.80
2023-04-05T11:10:01.411Z,9.55
2023-04-05T11:13:11.764Z,12.10
2023-04-05T11:15:42.402Z,14.30
2023-04-05T11:18:14.635Z,15.85
2023-04-05T11:21:09.193Z,23.33
2023-04-05T11:24:07.452Z,14.20
2023-04-05T11:26:59.504Z,18.50
2023-04-05T11:29:52.306Z,5.97
2023-04-05T11:32:22.825Z,5.63
2023-04-05T11:35:16.128Z,7.05
2023-04-05T11:38:10.936Z,6.30
2023-04-05T11:40:44.545Z,5.97
2023-04-05T11:43:15.776Z,6.30
2023-04-05T11:45:47.972Z,6.20
2023-04-05T11:48:18.216Z,5.97
2023-04-05T11:50:53.792Z,6.00
2023-04-05T11:53:23.937Z,17.42
2023-04-05T11:55:57.120Z,7.03
2023-04-05T11:58:28.739Z,5.60
2023-04-05T12:01:07.222Z,5.95
2023-04-05T12:03:39.282Z,6.25
2023-04-05T12:06:12.997Z,6.13
2023-04-05T12:08:50.517Z,6.38
2023-04-05T12:11:31.081Z,7.00
2023-04-05T12:14:03.364Z,6.75
2023-04-05T12:16:33.625Z,6.65
2023-04-05T12:19:04.371Z,6.85
2023-04-05T12:21:34.827Z,6.72
2023-04-05T12:24:07.645Z,7.40
2023-04-05T12:26:41.166Z,7.22
2023-04-05T12:29:11.532Z,6.82
2023-04-05T12:31:43.704Z,6.40
2023-04-05T12:34:16.718Z,5.90
2023-04-05T12:36:48.887Z,5.93
2023-04-05T12:39:20.442Z,6.55
2023-04-05T12:42:02.941Z,6.32
2023-04-05T12:44:35.651Z,6.43
2023-04-05T12:47:11.121Z,6.60
2023-04-05T12:49:41.840Z,6.30
2023-04-05T12:52:12.150Z,5.97
2023-04-05T12:54:42.415Z,6.30
2023-04-05T12:57:15.547Z,6.68
2023-04-05T12:59:45.770Z,38.75
2023-04-05T13:02:16.100Z,5.22
2023-04-05T13:04:47.555Z,5.97
2023-04-05T13:07:17.878Z,6.20
2023-04-05T13:09:48.031Z,5.70
2023-04-05T13:12:21.013Z,5.60
2023-04-05T13:14:51.188Z,6.72
2023-04-05T13:17:22.601Z,5.95
2023-04-05T13:19:52.763Z,6.07
2023-04-05T13:22:24.220Z,6.35
2023-04-05T13:24:55.255Z,5.90
2023-04-05T13:27:28.093Z,5.72
2023-04-05T13:29:58.226Z,5.68
2023-04-05T13:32:28.776Z,6.60
2023-04-05T13:34:59.115Z,6.35
2023-04-05T13:37:29.511Z,6.05
2023-04-05T13:40:02.299Z,6.07
2023-04-05T13:42:35.079Z,6.22
2023-04-05T13:45:05.436Z,5.60
2023-04-05T13:47:35.635Z,5.47
2023-04-05T13:50:06.501Z,9.68
2023-04-05T13:52:37.711Z,5.47
2023-04-05T13:55:09.376Z,5.82
2023-04-05T13:57:42.178Z,4.90
2023-04-05T14:00:14.483Z,5.15
2023-04-05T14:02:45.360Z,5.07
2023-04-05T14:05:16.528Z,5.20
2023-04-05T14:07:46.843Z,5.55
2023-04-05T14:10:17.275Z,6.20
2023-04-05T14:12:50.050Z,6.65
2023-04-05T14:15:20.911Z,6.88
2023-04-05T14:17:52.460Z,7.00
2023-04-05T14:20:23.043Z,6.68
2023-04-05T14:22:53.465Z,6.30
2023-04-05T14:25:23.911Z,8.20
2023-04-05T14:27:56.864Z,7.32
2023-04-05T14:30:27.378Z,7.22
2023-04-05T14:32:57.802Z,6.75
2023-04-05T14:35:28.439Z,6.53
2023-04-05T14:37:58.978Z,6.05
2023-04-05T14:40:29.484Z,6.80
2023-04-05T14:43:02.608Z,6.97
2023-04-05T14:45:34.518Z,6.47
2023-04-05T14:48:04.950Z,7.20
2023-04-05T14:50:35.537Z,7.13
2023-04-05T14:53:05.947Z,6.57
2023-04-05T14:55:37.418Z,6.68
2023-04-05T14:58:14.234Z,6.70
2023-04-05T15:00:45.025Z,7.13
2023-04-05T15:03:15.655Z,7.15
2023-04-05T15:05:46.725Z,6.93
2023-04-05T15:08:17.195Z,7.38
2023-04-05T15:10:48.509Z,7.07
2023-04-05T15:13:24.254Z,6.60
2023-04-05T15:15:54.649Z,6.30
2023-04-05T15:18:25.049Z,6.28
2023-04-05T15:20:55.506Z,7.18
2023-04-05T15:23:26.032Z,6.88
2023-04-05T15:25:56.448Z,6.80
2023-04-05T15:28:30.570Z,7.90
2023-04-05T15:31:01.157Z,6.30
2023-04-05T15:33:34.371Z,7.80
2023-04-05T15:36:04.904Z,6.80
2023-04-05T15:38:35.321Z,6.43
2023-04-05T15:41:05.801Z,6.10
2023-04-05T15:43:41.048Z,6.50
2023-04-05T15:46:11.577Z,6.63
2023-04-05T15:48:43.890Z,5.97
2023-04-05T15:51:14.752Z,5.97
2023-04-05T15:53:45.233Z,5.60
2023-04-05T15:56:15.633Z,6.22
2023-04-05T15:58:48.648Z,5.68
2023-04-05T16:01:21.549Z,6.05
2023-04-05T16:03:55.090Z,5.95
2023-04-05T16:06:29.954Z,6.10
2023-04-05T16:09:00.983Z,6.00
2023-04-05T16:11:31.851Z,5.50
2023-04-05T16:14:05.776Z,6.25
2023-04-05T16:16:46.007Z,6.20
2023-04-05T16:19:24.250Z,6.65
2023-04-05T16:21:54.876Z,6.45
2023-04-05T16:24:26.854Z,5.93
2023-04-05T16:26:57.237Z,6.03
2023-04-05T16:29:33.306Z,6.13
2023-04-05T16:32:06.183Z,6.05
2023-04-05T16:34:36.578Z,6.47
2023-04-05T16:37:06.985Z,6.10
2023-04-05T16:39:37.358Z,6.57
2023-04-05T16:42:08.158Z,6.40
2023-04-05T16:44:41.196Z,6.32
2023-04-05T16:47:11.604Z,7.07
2023-04-05T16:49:41.976Z,5.95
2023-04-05T16:52:12.746Z,6.28
2023-04-05T16:54:43.185Z,5.78
2023-04-05T16:57:13.954Z,6.50
2023-04-05T16:59:49.178Z,6.63
2023-04-05T17:02:19.620Z,6.38
2023-04-05T17:04:50.023Z,5.75
2023-04-05T17:07:20.585Z,6.65
2023-04-05T17:09:52.892Z,6.80
2023-04-05T17:12:24.588Z,6.78
2023-04-05T17:14:59.685Z,6.28
2023-04-05T17:17:30.330Z,6.00
2023-04-05T17:20:00.748Z,6.60
2023-04-05T17:22:31.734Z,6.38
2023-04-05T17:25:02.978Z,5.72
2023-04-05T17:27:33.479Z,5.57
2023-04-05T17:30:07.066Z,6.82
2023-04-05T17:32:41.983Z,7.15
2023-04-05T17:35:13.452Z,8.38
2023-04-05T17:37:43.941Z,8.57
2023-04-05T17:40:18.719Z,8.97
2023-04-05T17:42:49.226Z,8.80
2023-04-05T17:45:22.429Z,9.30
2023-04-05T17:47:52.914Z,8.83
2023-04-05T17:50:24.876Z,8.30
2023-04-05T17:52:57.660Z,9.23
2023-04-05T17:55:28.046Z,8.97
2023-04-05T17:57:58.461Z,8.70
2023-04-05T18:00:31.588Z,9.57
2023-04-05T18:03:07.516Z,9.83
2023-04-05T18:05:38.748Z,9.67
2023-04-05T18:08:09.358Z,9.93
2023-04-05T18:10:39.725Z,9.60
2023-04-05T18:13:10.131Z,10.37
2023-04-05T18:15:44.802Z,9.80
2023-04-05T18:18:15.542Z,9.00
2023-04-05T18:20:45.880Z,9.20
2023-04-05T18:23:17.376Z,8.77
2023-04-05T18:25:48.413Z,9.23
2023-04-05T18:28:22.795Z,8.70
2023-04-05T18:30:59.705Z,8.57
2023-04-05T18:33:30.205Z,9.60
2023-04-05T18:36:48.550Z,9.57
2023-04-05T18:39:20.260Z,9.20
2023-04-05T18:41:50.983Z,8.83
2023-04-05T18:44:21.541Z,8.50
2023-04-05T18:46:57.131Z,8.50
2023-04-05T18:49:27.920Z,8.77
2023-04-05T18:51:58.309Z,8.40
2023-04-05T18:54:29.055Z,7.97
2023-04-05T18:56:59.641Z,7.97
2023-04-05T18:59:30.065Z,8.67
2023-04-05T19:02:04.705Z,8.47
2023-04-05T19:04:35.181Z,8.00
2023-04-05T19:07:05.659Z,7.80
2023-04-05T19:09:37.726Z,8.13
2023-04-05T19:12:08.880Z,14.20
2023-04-05T19:14:39.480Z,19.70
2023-04-05T19:17:12.698Z,20.80
2023-04-05T19:19:45.485Z,14.60
2023-04-05T19:22:18.480Z,10.70
2023-04-05T19:24:48.928Z,10.13
2023-04-05T19:27:19.315Z,10.20
2023-04-05T19:29:49.927Z,10.57
2023-04-05T19:32:23.335Z,9.63
2023-04-05T19:34:55.933Z,11.03
2023-04-05T19:37:26.463Z,10.27
2023-04-05T19:39:57.289Z,10.23
2023-04-05T19:42:27.805Z,9.50
2023-04-05T19:45:01.188Z,10.13
2023-04-05T19:47:34.393Z,12.17
2023-04-05T19:50:05.044Z,10.23
2023-04-05T19:52:43.457Z,9.67
2023-04-05T19:55:35.111Z,12.43
2023-04-05T19:58:10.254Z,10.70
2023-04-05T20:00:44.720Z,10.80
2023-04-05T20:03:32.949Z,12.07
2023-04-05T20:06:10.024Z,12.27
2023-04-05T20:08:42.693Z,9.80
2023-04-05T20:11:16.658Z,10.70
2023-04-05T20:13:59.055Z,11.37
2023-04-05T20:16:31.739Z,10.80
2023-04-05T20:19:08.696Z,9.97
2023-04-05T20:21:43.135Z,10.07
2023-04-05T20:24:22.115Z,10.83
2023-04-05T20:26:52.759Z,11.03
2023-04-05T20:29:30.125Z,10.00
2023-04-05T20:32:00.814Z,11.73
2023-04-05T20:34:38.256Z,13.07
2023-04-05T20:37:13.709Z,11.83
2023-04-05T20:39:44.237Z,12.17
2023-04-05T20:42:14.616Z,12.77
2023-04-05T20:44:46.713Z,12.97
2023-04-05T20:47:17.143Z,11.20
2023-04-05T20:49:50.636Z,9.57
2023-04-05T20:52:21.007Z,9.93
2023-04-05T20:54:52.314Z,10.27
2023-04-05T20:57:22.755Z,9.80
2023-04-05T20:59:53.066Z,9.87
2023-04-05T21:02:23.516Z,9.80
2023-04-05T21:04:58.543Z,11.43
2023-04-05T21:07:28.959Z,11.47
2023-04-05T21:09:59.304Z,14.53
2023-04-05T21:12:29.756Z,12.10
2023-04-05T21:15:00.470Z,9.93
2023-04-05T21:17:30.926Z,10.77
2023-04-05T21:20:05.518Z,9.93
2023-04-05T21:22:36.238Z,8.53
2023-04-05T21:25:07.961Z,9.73
2023-04-05T21:27:38.392Z,9.60
2023-04-05T21:30:14.275Z,8.87
2023-04-05T21:32:44.779Z,8.83
2023-04-05T21:35:17.861Z,8.60
2023-04-05T21:37:48.236Z,8.63
2023-04-05T21:40:18.732Z,8.93
2023-04-05T21:42:49.562Z,8.70
2023-04-05T21:45:19.977Z,8.80
2023-04-05T21:47:50.444Z,9.60
2023-04-05T21:50:23.689Z,11.17
2023-04-05T21:52:54.072Z,11.20
2023-04-05T21:55:24.603Z,10.80
2023-04-05T21:57:59.130Z,10.90
2023-04-05T22:00:32.004Z,11.43
2023-04-05T22:03:03.501Z,11.97
2023-04-05T22:05:38.505Z,11.30
2023-04-05T22:08:10.503Z,11.87
2023-04-05T22:10:44.302Z,12.13
2023-04-05T22:13:14.742Z,11.87
2023-04-05T22:15:46.478Z,10.30
2023-04-05T22:18:17.601Z,9.63
2023-04-05T22:20:50.551Z,11.20
2023-04-05T22:23:21.081Z,9.50
2023-04-05T22:25:54.127Z,9.20
2023-04-05T22:28:25.252Z,9.17
2023-04-05T22:31:08.334Z,10.37
2023-04-05T22:33:38.767Z,11.60
2023-04-05T22:36:13.197Z,11.20
2023-04-05T22:38:43.778Z,11.13
2023-04-05T22:41:14.190Z,10.70
2023-04-05T22:43:46.873Z,9.97
2023-04-05T22:46:17.334Z,9.50
2023-04-05T22:48:51.144Z,10.13
2023-04-05T22:51:24.160Z,10.53
2023-04-05T22:53:56.517Z,9.87
2023-04-05T22:56:28.031Z,10.57
2023-04-05T22:58:58.482Z,10.57
2023-04-05T23:01:28.896Z,10.40
2023-04-05T23:03:59.321Z,12.57
2023-04-05T23:06:36.194Z,13.17
2023-04-05T23:09:08.565Z,12.13
2023-04-05T23:11:39.370Z,14.00
2023-04-05T23:14:12.848Z,12.27
2023-04-05T23:16:43.307Z,12.47
2023-04-05T23:19:13.716Z,11.00
2023-04-05T23:21:46.838Z,11.70
2023-04-05T23:24:17.430Z,10.43
2023-04-05T23:26:47.998Z,12.17
2023-04-05T23:29:18.862Z,10.33
2023-04-05T23:31:49.549Z,11.60
2023-04-05T23:34:20.007Z,11.50
2023-04-05T23:36:55.653Z,11.47
2023-04-05T23:39:26.060Z,11.27
2023-04-05T23:41:57.039Z,12.73
2023-04-05T23:44:27.556Z,12.30
2023-04-05T23:46:58.023Z,11.73
2023-04-05T23:49:29.151Z,14.73
2023-04-05T23:52:02.340Z,14.10
2023-04-05T23:54:32.748Z,12.97
2023-04-05T23:57:03.119Z,11.00
2023-04-05T23:59:33.727Z,11.33
